Route Details

Aircraft Information
Group: European Fleet
Types: A30F, A31F, B738
Route Data
Distance: 676nm
Duration: 1h 44m
Origin METAR: LDDU 072330Z 02019KT 300V090 CAVOK 01/M15 Q1032
Dest. METAR: EDDK 072320Z AUTO VRB01KT CAVOK M03/M06 Q1039 NOSIG
Freight Data
(for Feb 7, 2023)
Load Factor:
88%
Manifested Cargo: 53,307lbs
Financial History
Total Freight: 156,131lbs
Average Load: 0lbs/flt
Fuel Used: 54,791lbs
Avg. Fuel Used: 0lbs/flt
Fuel Expense: $28,182
Avg. Fuel Expense: $0
Avg. Fuel Cost: $0/lbs
Total Gross Income: $716,641
Pilot Pay: $807
Total Expenses: $144,480
Total Revenue: $541,540
Average Revenue: $0

Capitol Logistics 540




LDDU
Dubrovnik Airport
Dubrovnik, HR
EDDK
Cologne Bonn Airport
Cologne, DE